Time;durP1;ratioP1;P1;durP2;ratioP2;P2;SDS_P1;SDS_P2;PMS_P1;PMS_P2;Temp;Humidity;BMP_temperature;BMP_pressure;BME280_temperature;BME280_humidity;BME280_pressure;Samples;Min_cycle;Max_cycle;Signal;HPM_P1;HPM_P2
2020/12/12 00:00:14;;;;;;;12.43;9.40;;;3.30;1.00;;;;;;5063191;28;20186;-51
2020/12/12 00:02:40;;;;;;;12.10;8.95;;;3.40;1.00;;;;;;5056334;28;20447;-55
2020/12/12 00:05:06;;;;;;;11.43;9.27;;;3.40;1.00;;;;;;5059751;28;20251;-49
2020/12/12 00:07:31;;;;;;;12.87;9.13;;;3.30;1.00;;;;;;5070226;28;20266;-50
2020/12/12 00:09:57;;;;;;;10.97;8.40;;;3.30;1.00;;;;;;5061692;28;20185;-53
2020/12/12 00:12:23;;;;;;;11.77;8.50;;;3.30;1.00;;;;;;5065959;28;20310;-53
2020/12/12 00:14:48;;;;;;;10.57;8.40;;;3.20;1.00;;;;;;5056264;28;20681;-51
2020/12/12 00:17:14;;;;;;;11.57;8.67;;;3.20;1.00;;;;;;5070627;28;20242;-51
2020/12/12 00:19:39;;;;;;;11.00;8.30;;;3.20;1.00;;;;;;5060465;28;20185;-49
2020/12/12 00:22:05;;;;;;;11.50;7.90;;;3.20;1.00;;;;;;5051831;28;20249;-52
2020/12/12 00:24:31;;;;;;;11.27;8.00;;;3.20;1.00;;;;;;5065289;28;20776;-47
2020/12/12 00:26:57;;;;;;;9.73;7.93;;;3.20;1.00;;;;;;5071489;28;20221;-47
2020/12/12 00:29:23;;;;;;;11.80;8.15;;;3.20;1.00;;;;;;5055374;28;20199;-49
2020/12/12 00:31:57;;;;;;;10.80;8.00;;;3.20;1.00;;;;;;5052962;28;20208;-48
2020/12/12 00:34:27;;;;;;;11.20;8.18;;;3.20;1.00;;;;;;5067053;28;20501;-52
2020/12/12 00:36:54;;;;;;;9.30;7.65;;;3.20;1.00;;;;;;5068932;28;20195;-51
2020/12/12 00:39:20;;;;;;;10.55;8.38;;;3.20;1.00;;;;;;5058360;28;20190;-49
2020/12/12 00:41:46;;;;;;;12.13;8.48;;;3.20;1.00;;;;;;5050961;28;20233;-53
2020/12/12 00:44:13;;;;;;;11.38;8.68;;;3.20;1.00;;;;;;5060839;28;20188;-50
2020/12/12 00:46:39;;;;;;;11.13;8.50;;;3.20;1.00;;;;;;5060841;28;20280;-49
2020/12/12 00:49:08;;;;;;;12.80;8.75;;;3.20;1.00;;;;;;5050549;28;20185;-49
2020/12/12 00:51:34;;;;;;;11.63;9.13;;;3.20;1.00;;;;;;5055903;28;20203;-48
2020/12/12 00:54:00;;;;;;;12.00;9.53;;;3.20;1.00;;;;;;5075574;28;20231;-48
2020/12/12 00:56:26;;;;;;;12.23;9.07;;;3.20;1.00;;;;;;5070138;28;20180;-50
2020/12/12 00:58:52;;;;;;;10.95;9.00;;;3.20;1.00;;;;;;5063354;28;20946;-52
2020/12/12 01:01:18;;;;;;;14.30;9.43;;;3.20;1.00;;;;;;5050454;28;20181;-52
2020/12/12 01:03:45;;;;;;;12.02;9.43;;;3.20;1.00;;;;;;5050983;28;20184;-50
2020/12/12 01:06:12;;;;;;;13.40;10.10;;;3.20;1.00;;;;;;5057698;28;20181;-50
2020/12/12 01:08:38;;;;;;;13.68;9.88;;;3.20;1.00;;;;;;5067839;28;20192;-51
2020/12/12 01:11:06;;;;;;;13.80;9.68;;;3.20;1.00;;;;;;5069263;28;20212;-52
2020/12/12 01:13:32;;;;;;;14.25;9.50;;;3.20;1.00;;;;;;5062586;28;20188;-47
2020/12/12 01:15:58;;;;;;;12.80;9.50;;;3.20;1.00;;;;;;5050324;28;20280;-52
2020/12/12 01:18:24;;;;;;;11.57;9.13;;;3.20;1.00;;;;;;5052294;28;21891;-51
2020/12/12 01:20:50;;;;;;;11.03;9.10;;;3.20;1.00;;;;;;5067882;28;20190;-53
2020/12/12 01:23:15;;;;;;;12.20;9.17;;;3.20;1.00;;;;;;5057440;28;20842;-54
2020/12/12 01:25:41;;;;;;;15.13;9.67;;;3.30;1.00;;;;;;5048768;28;20511;-54
2020/12/12 01:28:07;;;;;;;12.87;9.00;;;3.30;1.00;;;;;;5052805;28;20206;-49
2020/12/12 01:30:36;;;;;;;14.33;10.27;;;3.30;1.00;;;;;;5069607;28;20187;-48
2020/12/12 01:33:02;;;;;;;12.68;10.23;;;3.30;1.00;;;;;;5070199;28;20491;-52
2020/12/12 01:35:28;;;;;;;14.93;10.73;;;3.30;1.00;;;;;;5050857;28;20252;-52
2020/12/12 01:37:53;;;;;;;13.33;9.20;;;3.40;1.00;;;;;;5049511;28;20181;-49
2020/12/12 01:40:19;;;;;;;13.33;9.03;;;3.40;1.00;;;;;;5064314;28;20267;-50
2020/12/12 01:42:45;;;;;;;12.55;8.93;;;3.40;1.00;;;;;;5068407;28;20639;-52
2020/12/12 01:45:11;;;;;;;13.63;9.70;;;3.40;1.00;;;;;;5054117;28;20575;-50
2020/12/12 01:47:38;;;;;;;14.27;9.90;;;3.30;1.00;;;;;;5069838;28;20174;-52
2020/12/12 01:50:06;;;;;;;11.75;9.05;;;3.30;1.00;;;;;;5069009;28;20219;-51
2020/12/12 01:52:32;;;;;;;14.32;10.18;;;3.40;1.00;;;;;;5068968;28;20274;-49
2020/12/12 01:54:59;;;;;;;12.93;9.60;;;3.40;1.00;;;;;;5075040;28;20200;-50
2020/12/12 01:57:25;;;;;;;11.80;9.35;;;3.40;1.00;;;;;;5071225;28;20185;-51
2020/12/12 01:59:52;;;;;;;12.10;9.70;;;3.40;1.00;;;;;;5064430;28;20182;-49
2020/12/12 02:02:19;;;;;;;12.07;9.15;;;3.40;1.00;;;;;;5058503;28;21088;-50
2020/12/12 02:04:55;;;;;;;10.15;9.00;;;3.40;1.00;;;;;;5068054;28;20211;-50
2020/12/12 02:07:22;;;;;;;11.48;8.70;;;3.40;1.00;;;;;;5068524;28;20233;-51
2020/12/12 02:09:49;;;;;;;10.65;8.55;;;3.40;1.00;;;;;;5067133;28;20188;-53
2020/12/12 02:12:16;;;;;;;9.98;8.32;;;3.40;1.00;;;;;;5068340;28;20262;-50
2020/12/12 02:14:43;;;;;;;12.65;9.10;;;3.50;1.00;;;;;;5068061;28;20275;-52
2020/12/12 02:17:10;;;;;;;14.43;9.70;;;3.50;1.00;;;;;;5068340;28;20267;-52
2020/12/12 02:19:36;;;;;;;12.45;9.38;;;3.40;1.00;;;;;;5062451;28;20190;-50
2020/12/12 02:22:04;;;;;;;11.60;9.25;;;3.40;1.00;;;;;;5063815;28;20177;-48
2020/12/12 02:24:33;;;;;;;13.15;9.20;;;3.50;1.00;;;;;;5063164;28;20178;-52
2020/12/12 02:27:03;;;;;;;11.00;8.50;;;3.50;1.00;;;;;;5064324;28;20297;-49
2020/12/12 02:29:50;;;;;;;10.63;8.13;;;3.50;1.00;;;;;;5068579;28;20185;-53
2020/12/12 02:32:16;;;;;;;10.27;8.35;;;3.50;1.00;;;;;;5068184;28;20697;-52
2020/12/12 02:34:44;;;;;;;10.50;8.63;;;3.60;1.00;;;;;;5066156;28;20271;-49
2020/12/12 02:37:10;;;;;;;10.10;8.50;;;3.60;1.00;;;;;;5069302;28;20727;-49
2020/12/12 02:39:35;;;;;;;13.50;8.23;;;3.60;1.00;;;;;;5067890;28;20238;-51
2020/12/12 02:42:01;;;;;;;10.30;8.57;;;3.60;1.00;;;;;;5066309;28;20553;-50
2020/12/12 02:44:27;;;;;;;10.73;8.20;;;3.70;1.00;;;;;;5061418;28;20194;-51
2020/12/12 02:46:52;;;;;;;10.97;8.30;;;3.70;1.00;;;;;;5060313;28;20193;-49
2020/12/12 02:49:18;;;;;;;9.70;7.83;;;3.70;1.00;;;;;;5068155;28;20192;-49
2020/12/12 02:51:44;;;;;;;9.90;7.50;;;3.70;1.00;;;;;;5068993;28;20318;-51
2020/12/12 02:54:10;;;;;;;9.43;7.53;;;3.80;1.00;;;;;;5066877;28;20635;-50
2020/12/12 02:56:36;;;;;;;10.00;8.23;;;3.80;1.00;;;;;;5054873;28;20193;-49
2020/12/12 02:59:02;;;;;;;11.20;8.90;;;3.80;1.00;;;;;;5054910;28;20768;-52
2020/12/12 03:01:28;;;;;;;10.90;7.53;;;3.80;1.00;;;;;;5065704;28;20509;-49
2020/12/12 03:03:54;;;;;;;12.27;8.07;;;3.80;1.00;;;;;;5068479;28;20217;-52
2020/12/12 03:06:19;;;;;;;9.50;7.40;;;3.80;1.00;;;;;;5065416;28;20189;-50
2020/12/12 03:08:45;;;;;;;10.17;8.40;;;3.80;1.00;;;;;;5067159;28;20516;-49
2020/12/12 03:11:11;;;;;;;11.53;8.30;;;3.80;1.00;;;;;;5055740;28;20209;-51
2020/12/12 03:13:36;;;;;;;10.83;9.10;;;3.80;1.00;;;;;;5068557;28;20180;-53
2020/12/12 03:16:02;;;;;;;9.60;7.90;;;3.90;1.00;;;;;;5051535;28;20209;-50
2020/12/12 03:18:28;;;;;;;8.97;7.37;;;3.90;1.00;;;;;;5068814;28;20181;-53
2020/12/12 03:20:53;;;;;;;8.20;6.77;;;3.90;1.00;;;;;;5050366;28;20424;-52
2020/12/12 03:23:19;;;;;;;8.57;7.00;;;3.90;1.00;;;;;;5064553;28;20683;-53
2020/12/12 03:25:45;;;;;;;9.90;8.60;;;3.90;1.00;;;;;;5068612;28;20180;-50
2020/12/12 03:28:10;;;;;;;8.17;7.07;;;3.90;1.00;;;;;;5057301;28;20177;-53
2020/12/12 03:30:37;;;;;;;9.33;7.67;;;4.00;1.00;;;;;;5068067;28;20196;-50
2020/12/12 03:33:03;;;;;;;10.10;7.60;;;4.00;1.00;;;;;;5062383;28;20256;-51
2020/12/12 03:35:28;;;;;;;8.27;7.25;;;4.00;1.00;;;;;;5059887;28;20186;-51
2020/12/12 03:37:55;;;;;;;8.43;7.30;;;4.00;1.00;;;;;;5067864;28;20184;-54
2020/12/12 03:40:23;;;;;;;10.55;7.70;;;4.00;1.00;;;;;;5063829;28;20658;-53
2020/12/12 03:42:53;;;;;;;11.02;8.20;;;4.00;1.00;;;;;;5068149;28;20188;-52
2020/12/12 03:45:20;;;;;;;9.90;7.70;;;4.00;1.00;;;;;;5054070;28;20316;-53
2020/12/12 03:47:49;;;;;;;10.73;7.85;;;4.00;1.00;;;;;;5048185;28;20166;-50
2020/12/12 03:50:16;;;;;;;10.73;8.20;;;4.00;1.00;;;;;;5060449;28;20220;-50
2020/12/12 03:52:43;;;;;;;10.02;7.85;;;4.00;1.00;;;;;;5069265;28;20201;-49
2020/12/12 03:55:08;;;;;;;9.85;7.97;;;4.10;1.00;;;;;;5071999;28;20224;-52
2020/12/12 03:57:34;;;;;;;9.20;7.50;;;4.10;1.00;;;;;;5075520;28;20205;-51
2020/12/12 04:00:05;;;;;;;10.50;7.83;;;4.10;1.00;;;;;;5069471;28;20204;-53
2020/12/12 04:02:30;;;;;;;11.40;8.38;;;4.10;1.00;;;;;;5055943;28;20190;-48
2020/12/12 04:04:56;;;;;;;9.27;8.10;;;4.10;1.00;;;;;;5054677;28;20503;-53
2020/12/12 04:07:22;;;;;;;10.67;8.07;;;4.10;1.00;;;;;;5057304;28;20278;-50
2020/12/12 04:09:47;;;;;;;9.87;8.60;;;4.20;1.00;;;;;;5062110;28;20205;-51
2020/12/12 04:12:13;;;;;;;10.80;8.17;;;4.20;1.00;;;;;;5052386;28;20209;-52
2020/12/12 04:14:38;;;;;;;11.40;8.17;;;4.20;1.00;;;;;;5064550;28;20184;-52
2020/12/12 04:17:04;;;;;;;9.80;8.10;;;4.20;1.00;;;;;;5070957;28;20181;-54
2020/12/12 04:19:30;;;;;;;10.83;8.50;;;4.20;1.00;;;;;;5069577;28;20181;-52
2020/12/12 04:21:55;;;;;;;10.00;8.20;;;4.10;1.00;;;;;;5070117;28;20177;-54
2020/12/12 04:24:21;;;;;;;9.70;7.83;;;4.20;1.00;;;;;;5063363;28;20502;-52
2020/12/12 04:26:46;;;;;;;11.13;8.40;;;4.20;1.00;;;;;;5061198;28;20212;-54
2020/12/12 04:29:12;;;;;;;9.50;7.70;;;4.20;1.00;;;;;;5064746;28;20182;-52
2020/12/12 04:31:37;;;;;;;10.57;7.87;;;4.20;1.00;;;;;;5065334;28;20547;-52
2020/12/12 04:34:03;;;;;;;10.03;8.00;;;4.20;1.00;;;;;;5058370;28;20235;-49
2020/12/12 04:36:32;;;;;;;9.10;7.70;;;4.20;1.00;;;;;;5055153;28;20232;-51
2020/12/12 04:38:59;;;;;;;10.15;8.52;;;4.20;1.00;;;;;;5065710;28;20700;-52
2020/12/12 04:41:26;;;;;;;10.05;7.60;;;4.20;1.00;;;;;;5051105;28;20308;-49
2020/12/12 04:43:53;;;;;;;10.32;8.55;;;4.10;1.00;;;;;;5052589;28;20293;-52
2020/12/12 04:46:19;;;;;;;8.77;7.70;;;4.10;1.00;;;;;;5070253;28;20196;-52
2020/12/12 04:48:45;;;;;;;10.20;8.10;;;4.10;1.00;;;;;;5068638;28;20230;-48
2020/12/12 04:51:12;;;;;;;11.50;8.90;;;4.10;1.00;;;;;;5070824;28;20605;-50
2020/12/12 04:53:39;;;;;;;10.40;7.80;;;4.10;1.00;;;;;;5063803;28;20182;-52
2020/12/12 04:56:06;;;;;;;10.05;8.15;;;4.10;1.00;;;;;;5078883;28;20277;-51
2020/12/12 04:58:38;;;;;;;10.52;8.35;;;4.10;1.00;;;;;;5067751;28;20631;-49
2020/12/12 05:01:04;;;;;;;11.30;8.75;;;4.10;1.00;;;;;;5050920;28;20848;-52
2020/12/12 05:03:32;;;;;;;10.77;8.55;;;4.10;1.00;;;;;;5073734;28;20207;-48
2020/12/12 05:05:58;;;;;;;9.50;8.20;;;4.10;1.00;;;;;;5064430;28;20187;-49
2020/12/12 05:08:24;;;;;;;8.43;7.63;;;4.10;1.00;;;;;;5087269;28;20176;-50
2020/12/12 05:10:53;;;;;;;10.37;8.17;;;4.00;1.00;;;;;;5057947;28;20541;-52
2020/12/12 05:13:21;;;;;;;8.98;7.47;;;4.10;1.00;;;;;;5069793;28;20223;-52
2020/12/12 05:15:48;;;;;;;10.60;8.50;;;4.10;1.00;;;;;;5069718;28;20177;-48
2020/12/12 05:18:13;;;;;;;10.75;8.68;;;4.00;1.00;;;;;;5069097;28;20203;-49
2020/12/12 05:20:40;;;;;;;9.30;7.90;;;4.00;1.00;;;;;;5069557;28;20256;-53
2020/12/12 05:23:18;;;;;;;9.43;7.78;;;4.00;1.00;;;;;;5064131;28;20193;-50
2020/12/12 05:25:45;;;;;;;10.60;8.43;;;4.00;1.00;;;;;;5065773;28;20187;-54
2020/12/12 05:28:13;;;;;;;10.73;8.43;;;4.00;1.00;;;;;;5069349;28;20196;-54
2020/12/12 05:30:40;;;;;;;9.70;8.27;;;4.00;1.00;;;;;;5069625;28;20187;-55
2020/12/12 05:33:07;;;;;;;10.18;8.13;;;3.90;1.00;;;;;;5070201;28;20679;-47
2020/12/12 05:35:33;;;;;;;13.50;9.32;;;3.90;1.00;;;;;;5069538;28;20211;-54
2020/12/12 05:38:01;;;;;;;9.90;8.50;;;3.90;1.00;;;;;;5068075;28;20176;-48
2020/12/12 05:40:26;;;;;;;10.48;8.27;;;3.90;1.00;;;;;;5069298;28;20331;-50
2020/12/12 05:42:52;;;;;;;10.70;8.90;;;3.90;1.00;;;;;;5069002;28;20280;-52
2020/12/12 05:45:18;;;;;;;10.63;8.47;;;3.90;1.00;;;;;;5069240;28;20207;-53
2020/12/12 05:47:43;;;;;;;12.57;9.67;;;3.90;1.00;;;;;;5069824;28;20177;-51
2020/12/12 05:50:10;;;;;;;12.90;9.30;;;3.90;1.00;;;;;;5069086;28;20270;-48
2020/12/12 05:52:41;;;;;;;9.88;8.40;;;3.90;1.00;;;;;;5067810;28;20236;-51
2020/12/12 05:55:07;;;;;;;10.50;8.43;;;3.90;1.00;;;;;;5062761;28;20493;-47
2020/12/12 05:57:33;;;;;;;12.20;9.30;;;3.90;1.00;;;;;;5070064;28;20193;-48
2020/12/12 06:00:01;;;;;;;10.70;8.90;;;3.90;1.00;;;;;;5055563;28;20470;-52
2020/12/12 06:02:28;;;;;;;9.70;8.23;;;4.00;1.00;;;;;;5062077;28;20532;-50
2020/12/12 06:04:58;;;;;;;10.45;8.20;;;4.00;1.00;;;;;;5060750;28;20272;-54
2020/12/12 06:07:29;;;;;;;10.70;7.72;;;4.00;1.00;;;;;;5066062;28;20189;-52
2020/12/12 06:10:00;;;;;;;11.38;8.65;;;4.00;1.00;;;;;;5059745;28;20232;-47
2020/12/12 06:12:27;;;;;;;9.80;8.20;;;4.00;1.00;;;;;;5067957;28;20316;-53
2020/12/12 06:14:55;;;;;;;11.32;8.60;;;4.00;1.00;;;;;;5057469;28;20193;-50
2020/12/12 06:17:45;;;;;;;12.13;8.60;;;4.00;1.00;;;;;;5053474;28;20648;-53
2020/12/12 06:20:14;;;;;;;9.32;8.35;;;4.00;1.00;;;;;;5066845;28;20640;-50
2020/12/12 06:22:43;;;;;;;10.90;9.07;;;4.00;1.00;;;;;;5063704;28;20185;-51
2020/12/12 06:25:14;;;;;;;11.70;8.27;;;4.00;1.00;;;;;;5068211;28;20275;-50
2020/12/12 06:27:47;;;;;;;12.73;9.13;;;4.00;1.00;;;;;;5062613;28;20521;-48
2020/12/12 06:30:14;;;;;;;11.35;9.55;;;3.90;1.00;;;;;;5068539;28;20551;-54
2020/12/12 06:32:41;;;;;;;11.85;8.90;;;3.90;1.00;;;;;;5068356;28;20284;-51
2020/12/12 06:35:07;;;;;;;10.95;9.02;;;3.90;1.00;;;;;;5050706;28;20250;-51
2020/12/12 06:37:33;;;;;;;10.10;8.52;;;4.00;1.00;;;;;;5064172;28;20226;-51
2020/12/12 06:40:01;;;;;;;11.53;9.03;;;4.00;1.00;;;;;;5067962;28;20178;-51
2020/12/12 06:42:44;;;;;;;9.48;8.00;;;3.90;1.00;;;;;;5058255;28;20192;-51
2020/12/12 06:45:13;;;;;;;11.43;9.32;;;3.90;1.00;;;;;;5067076;28;20659;-50
2020/12/12 06:47:53;;;;;;;12.40;9.13;;;3.90;1.00;;;;;;5067939;28;20260;-49
2020/12/12 06:50:32;;;;;;;9.65;8.60;;;4.00;1.00;;;;;;5056904;28;20183;-53
2020/12/12 06:52:58;;;;;;;11.07;9.02;;;4.00;1.00;;;;;;5060256;28;20216;-49
2020/12/12 06:55:24;;;;;;;9.30;8.20;;;4.00;1.00;;;;;;5049481;28;20181;-51
2020/12/12 06:57:56;;;;;;;9.20;8.10;;;4.00;1.00;;;;;;5046858;28;20439;-52
2020/12/12 07:00:27;;;;;;;10.63;8.18;;;4.00;1.00;;;;;;5049541;28;20642;-48
2020/12/12 07:02:54;;;;;;;11.05;7.50;;;4.00;1.00;;;;;;5042802;28;20185;-51
2020/12/12 07:05:22;;;;;;;11.43;8.95;;;4.00;1.00;;;;;;5045211;28;20276;-49
2020/12/12 07:07:48;;;;;;;11.82;8.38;;;4.00;1.00;;;;;;5044160;28;20208;-51
2020/12/12 07:10:14;;;;;;;11.52;8.52;;;4.00;1.00;;;;;;5058124;28;20177;-52
2020/12/12 07:12:40;;;;;;;10.60;8.53;;;4.10;1.00;;;;;;5051810;28;20216;-49
2020/12/12 07:15:06;;;;;;;11.15;8.40;;;4.10;1.00;;;;;;5054874;28;20169;-48
2020/12/12 07:17:33;;;;;;;9.25;8.15;;;4.10;1.00;;;;;;5053533;28;20265;-49
2020/12/12 07:19:59;;;;;;;9.50;8.20;;;4.10;1.00;;;;;;5054596;28;20185;-51
2020/12/12 07:22:28;;;;;;;9.90;8.02;;;4.10;1.00;;;;;;5048699;28;20185;-54
2020/12/12 07:24:55;;;;;;;11.10;8.38;;;4.10;1.00;;;;;;5046564;28;20234;-51
2020/12/12 07:27:20;;;;;;;9.73;8.05;;;4.10;1.00;;;;;;5054972;28;20216;-50
2020/12/12 07:29:46;;;;;;;8.93;7.70;;;4.10;1.00;;;;;;5063310;28;20213;-53
2020/12/12 07:32:12;;;;;;;9.90;8.40;;;4.10;1.00;;;;;;5046945;28;20225;-50
2020/12/12 07:34:38;;;;;;;12.63;9.10;;;4.10;1.00;;;;;;5043649;28;20633;-54
2020/12/12 07:37:04;;;;;;;10.00;8.27;;;4.20;1.00;;;;;;5044749;28;20186;-50
2020/12/12 07:39:32;;;;;;;11.10;8.68;;;4.20;1.00;;;;;;5047661;28;20243;-48
2020/12/12 07:41:59;;;;;;;9.57;8.55;;;4.20;1.00;;;;;;5052975;28;20229;-51
2020/12/12 07:44:27;;;;;;;10.95;8.55;;;4.20;1.00;;;;;;5054738;28;20265;-52
2020/12/12 07:47:04;;;;;;;11.07;8.88;;;4.20;1.00;;;;;;5061869;28;20173;-55
2020/12/12 07:49:31;;;;;;;9.05;8.05;;;4.20;1.00;;;;;;5059717;28;20219;-50
2020/12/12 07:52:01;;;;;;;14.27;11.02;;;4.30;1.00;;;;;;5063193;28;20237;-50
2020/12/12 07:55:14;;;;;;;11.32;9.05;;;4.40;1.00;;;;;;5062863;28;20184;-53
2020/12/12 07:57:36;;;;;;;19.70;17.65;;;4.40;1.00;;;;;;5054701;28;20743;-54
2020/12/12 08:00:12;;;;;;;12.50;9.93;;;4.40;1.00;;;;;;5070735;28;20177;-52
2020/12/12 08:02:39;;;;;;;16.35;12.80;;;4.40;1.00;;;;;;5072022;28;20884;-52
2020/12/12 08:05:06;;;;;;;11.30;9.32;;;4.50;1.00;;;;;;5071755;28;20177;-52
2020/12/12 08:07:33;;;;;;;11.27;9.30;;;4.60;1.00;;;;;;5069981;28;20243;-51
2020/12/12 08:10:00;;;;;;;11.57;9.75;;;4.60;1.00;;;;;;5071778;28;20181;-49
2020/12/12 08:12:31;;;;;;;12.07;10.70;;;4.70;1.00;;;;;;5079117;28;20299;-54
2020/12/12 08:15:01;;;;;;;11.93;9.80;;;4.80;1.00;;;;;;5073756;28;20185;-55
2020/12/12 08:17:28;;;;;;;12.93;9.65;;;4.80;1.00;;;;;;5071385;28;20211;-53
2020/12/12 08:19:54;;;;;;;14.82;11.20;;;4.90;1.00;;;;;;5070756;28;20971;-51
2020/12/12 08:22:21;;;;;;;20.27;17.10;;;4.90;1.00;;;;;;5071491;28;20265;-50
2020/12/12 08:24:48;;;;;;;16.77;13.20;;;5.00;1.00;;;;;;5070637;28;20430;-51
2020/12/12 08:27:25;;;;;;;14.13;9.05;;;5.00;1.00;;;;;;5069701;28;20629;-52
2020/12/12 08:29:53;;;;;;;12.90;10.77;;;5.10;1.00;;;;;;5059021;28;20183;-53
2020/12/12 08:32:47;;;;;;;10.77;9.68;;;5.20;1.00;;;;;;5063151;28;20259;-52
2020/12/12 08:35:17;;;;;;;11.25;9.30;;;5.30;1.00;;;;;;5053278;28;20292;-54
2020/12/12 08:37:57;;;;;;;13.10;9.52;;;5.50;1.00;;;;;;5069444;28;20213;-55
2020/12/12 08:40:25;;;;;;;11.27;9.60;;;5.50;1.00;;;;;;5067622;28;20740;-54
2020/12/12 08:43:05;;;;;;;11.23;8.98;;;5.50;1.00;;;;;;5069874;28;20217;-49
2020/12/12 08:45:33;;;;;;;13.23;9.90;;;5.50;1.00;;;;;;5069412;28;20181;-52
2020/12/12 08:48:08;;;;;;;12.45;9.70;;;5.50;1.00;;;;;;5071094;28;20181;-51
2020/12/12 08:50:57;;;;;;;11.93;9.25;;;5.50;1.00;;;;;;5067626;28;20180;-51
2020/12/12 08:53:22;;;;;;;11.27;9.20;;;5.60;1.00;;;;;;5070944;28;20716;-52
2020/12/12 08:56:01;;;;;;;11.70;9.77;;;5.50;1.00;;;;;;5071498;28;20181;-54
2020/12/12 08:58:41;;;;;;;13.60;10.52;;;5.50;1.00;;;;;;5058615;28;20173;-55
2020/12/12 09:01:17;;;;;;;12.63;9.70;;;5.60;1.00;;;;;;5063871;28;20235;-51
2020/12/12 09:03:52;;;;;;;11.13;9.38;;;5.50;1.00;;;;;;5070841;28;20215;-50
2020/12/12 09:06:18;;;;;;;13.57;10.70;;;5.50;1.00;;;;;;5069785;28;20173;-54
2020/12/12 09:08:44;;;;;;;17.73;10.30;;;5.50;1.00;;;;;;5063832;28;20247;-50
2020/12/12 09:11:14;;;;;;;15.63;10.07;;;5.50;1.00;;;;;;5054679;28;20684;-51
2020/12/12 09:13:40;;;;;;;12.32;10.18;;;5.50;1.00;;;;;;5050746;28;20188;-50
2020/12/12 09:16:10;;;;;;;12.23;10.00;;;5.60;1.00;;;;;;5070615;28;20621;-51
2020/12/12 09:18:46;;;;;;;14.18;10.15;;;5.60;1.00;;;;;;5067572;28;20272;-48
2020/12/12 09:21:12;;;;;;;12.05;9.80;;;5.60;1.00;;;;;;5069901;28;20243;-54
2020/12/12 09:23:38;;;;;;;14.02;10.02;;;5.60;1.00;;;;;;5058656;28;20209;-51
2020/12/12 09:26:05;;;;;;;12.95;10.25;;;5.60;1.00;;;;;;5059565;28;20606;-49
2020/12/12 09:28:31;;;;;;;14.70;10.77;;;5.60;1.00;;;;;;5061074;28;20537;-51
2020/12/12 09:30:56;;;;;;;11.73;10.13;;;5.70;1.00;;;;;;5053152;28;20189;-53
2020/12/12 09:33:22;;;;;;;11.63;9.60;;;5.70;1.00;;;;;;5051497;28;20446;-48
2020/12/12 09:35:48;;;;;;;11.50;9.87;;;5.80;1.00;;;;;;5061636;28;20302;-52
2020/12/12 09:38:14;;;;;;;12.97;10.23;;;5.80;1.00;;;;;;5055339;28;20178;-53
2020/12/12 09:40:39;;;;;;;11.30;9.20;;;5.70;1.00;;;;;;5053183;28;20581;-51
2020/12/12 09:43:05;;;;;;;11.50;9.40;;;5.70;1.00;;;;;;5062182;28;20208;-52
2020/12/12 09:45:30;;;;;;;10.60;9.00;;;5.80;1.00;;;;;;5063520;28;20208;-52
2020/12/12 09:47:56;;;;;;;11.43;8.90;;;5.80;1.00;;;;;;5066062;28;20185;-49
2020/12/12 09:50:33;;;;;;;12.70;9.73;;;5.80;1.00;;;;;;5069482;28;20272;-52
2020/12/12 09:53:02;;;;;;;12.40;9.50;;;5.90;1.00;;;;;;5067936;28;20216;-49
2020/12/12 09:55:29;;;;;;;11.82;9.45;;;6.00;1.00;;;;;;5057207;28;20221;-49
2020/12/12 09:57:56;;;;;;;11.10;9.27;;;6.10;1.00;;;;;;5055697;28;20185;-48
2020/12/12 10:00:21;;;;;;;12.27;10.07;;;6.20;1.00;;;;;;5067731;28;20228;-49
2020/12/12 10:02:47;;;;;;;12.70;10.13;;;6.30;1.00;;;;;;5051463;28;20217;-54
2020/12/12 10:05:13;;;;;;;11.83;9.63;;;6.50;1.00;;;;;;5050261;28;20181;-48
2020/12/12 10:07:38;;;;;;;12.57;9.80;;;6.60;1.00;;;;;;5063197;28;20184;-50
2020/12/12 10:10:04;;;;;;;13.97;10.40;;;6.80;1.00;;;;;;5058434;28;20240;-50
2020/12/12 10:12:29;;;;;;;13.70;10.57;;;6.90;99.90;;;;;;5066823;28;20828;-51
2020/12/12 10:14:55;;;;;;;13.43;10.80;;;6.80;99.90;;;;;;5059796;28;20177;-53
2020/12/12 10:17:21;;;;;;;12.80;11.10;;;6.70;99.90;;;;;;5069321;28;20186;-51
2020/12/12 10:19:46;;;;;;;12.93;11.00;;;6.80;1.00;;;;;;5068429;28;20229;-50
2020/12/12 10:22:12;;;;;;;13.67;10.70;;;6.80;99.90;;;;;;5064727;28;20217;-54
2020/12/12 10:24:37;;;;;;;15.17;10.80;;;6.90;1.00;;;;;;5058080;28;20222;-56
2020/12/12 10:27:03;;;;;;;16.57;11.47;;;7.00;99.90;;;;;;5063917;28;20198;-49
2020/12/12 10:29:29;;;;;;;13.47;11.50;;;7.00;99.90;;;;;;5056428;28;20178;-51
2020/12/12 10:31:54;;;;;;;13.97;10.90;;;7.00;99.90;;;;;;5082088;28;20379;-51
2020/12/12 10:34:20;;;;;;;13.50;10.97;;;7.20;99.90;;;;;;5063879;28;20179;-54
2020/12/12 10:36:46;;;;;;;15.90;11.77;;;7.20;84.00;;;;;;5053899;28;20873;-54
2020/12/12 10:39:11;;;;;;;16.10;11.60;;;7.30;1.00;;;;;;5066841;28;20179;-52
2020/12/12 10:41:37;;;;;;;14.17;11.43;;;7.40;1.00;;;;;;5051195;28;20225;-54
2020/12/12 10:44:03;;;;;;;14.80;11.80;;;7.50;1.00;;;;;;5053016;28;20184;-52
2020/12/12 10:46:30;;;;;;;14.87;11.13;;;7.60;1.00;;;;;;5053462;28;20191;-56
2020/12/12 10:48:56;;;;;;;14.80;11.90;;;7.80;99.90;;;;;;5052062;28;20795;-52
2020/12/12 10:51:21;;;;;;;14.60;11.13;;;7.90;1.00;;;;;;5043468;28;20485;-55
2020/12/12 10:53:49;;;;;;;13.70;11.20;;;7.80;99.90;;;;;;5049511;28;20298;-54
2020/12/12 10:56:15;;;;;;;14.95;10.35;;;7.90;99.90;;;;;;5051710;28;20671;-54
2020/12/12 10:58:40;;;;;;;12.73;10.70;;;8.00;99.90;;;;;;5048583;28;20209;-54
2020/12/12 11:01:06;;;;;;;13.60;10.77;;;8.30;99.90;;;;;;5048826;28;20184;-55
2020/12/12 11:03:32;;;;;;;13.33;10.70;;;8.40;1.00;;;;;;5055604;28;20186;-54
2020/12/12 11:05:57;;;;;;;12.50;10.33;;;8.50;1.00;;;;;;5055219;28;20177;-55
2020/12/12 11:08:23;;;;;;;15.07;11.50;;;8.30;1.00;;;;;;5049433;28;20196;-55
2020/12/12 11:10:49;;;;;;;13.47;9.53;;;8.20;1.00;;;;;;5049380;28;20180;-54
2020/12/12 11:13:14;;;;;;;14.00;10.40;;;8.10;1.00;;;;;;5043574;28;20223;-56
2020/12/12 11:15:42;;;;;;;14.00;10.40;;;8.00;99.90;;;;;;5056825;28;20184;-54
2020/12/12 11:18:09;;;;;;;13.67;10.00;;;8.10;74.60;;;;;;5053567;28;20180;-56
2020/12/12 11:20:35;;;;;;;13.80;10.50;;;8.10;1.00;;;;;;5049332;28;20481;-54
2020/12/12 11:23:00;;;;;;;14.30;9.70;;;8.10;99.90;;;;;;5057210;28;20446;-56
2020/12/12 11:25:26;;;;;;;13.20;10.60;;;8.10;99.90;;;;;;5053376;28;20276;-54
2020/12/12 11:27:54;;;;;;;13.50;10.03;;;8.10;1.00;;;;;;5051061;28;20204;-57
2020/12/12 11:30:21;;;;;;;13.47;9.90;;;8.20;1.00;;;;;;5049287;28;20283;-52
2020/12/12 11:32:47;;;;;;;13.30;10.33;;;8.20;24.40;;;;;;5062470;28;20942;-53
2020/12/12 11:35:17;;;;;;;13.33;10.50;;;8.30;1.00;;;;;;5065874;28;20485;-53
2020/12/12 11:40:48;;;;;;;15.20;10.17;;;8.30;1.00;;;;;;5065655;28;20499;-51
2020/12/12 11:48:44;;;;;;;15.17;10.53;;;8.70;57.00;;;;;;5066807;28;20511;-54
2020/12/12 11:51:10;;;;;;;13.20;10.07;;;8.60;41.60;;;;;;5063226;28;20816;-54
2020/12/12 11:53:36;;;;;;;17.00;10.83;;;8.70;99.90;;;;;;5066734;28;20480;-55
2020/12/12 11:56:01;;;;;;;14.10;10.70;;;8.70;50.50;;;;;;5062376;28;20266;-53
2020/12/12 11:58:27;;;;;;;11.63;10.07;;;8.90;19.40;;;;;;5069122;28;20694;-50
2020/12/12 12:00:53;;;;;;;12.60;10.37;;;9.00;1.00;;;;;;5066868;28;20635;-52
2020/12/12 12:03:19;;;;;;;12.73;10.13;;;9.10;1.00;;;;;;5068000;28;20192;-52
2020/12/12 12:05:47;;;;;;;13.43;11.13;;;9.10;1.00;;;;;;5067001;28;20443;-52
2020/12/12 12:08:41;;;;;;;13.63;10.00;;;9.00;1.00;;;;;;5069323;28;20196;-53
2020/12/12 12:11:17;;;;;;;12.20;9.90;;;9.10;1.00;;;;;;5066844;28;20457;-52
2020/12/12 12:13:43;;;;;;;14.50;10.43;;;9.00;99.90;;;;;;5066698;28;20453;-53
2020/12/12 12:16:09;;;;;;;13.83;10.10;;;8.80;1.00;;;;;;5066165;28;20438;-52
2020/12/12 12:18:35;;;;;;;10.87;9.70;;;8.60;1.00;;;;;;5067649;28;20197;-52
2020/12/12 12:21:02;;;;;;;13.50;10.17;;;8.40;1.00;;;;;;5066870;28;20434;-53
2020/12/12 12:23:28;;;;;;;11.10;9.23;;;8.40;1.00;;;;;;5069709;28;20182;-53
2020/12/12 12:25:55;;;;;;;13.10;9.27;;;8.10;24.30;;;;;;5068826;28;20935;-53
2020/12/12 12:28:21;;;;;;;14.30;9.50;;;8.00;99.90;;;;;;5068139;28;20631;-52
2020/12/12 12:30:47;;;;;;;11.67;9.63;;;8.00;1.00;;;;;;5067314;28;20956;-50
2020/12/12 12:33:13;;;;;;;12.10;9.40;;;7.90;1.00;;;;;;5070435;28;20460;-53
2020/12/12 12:35:39;;;;;;;13.63;9.93;;;7.80;99.90;;;;;;5069838;28;20807;-50
2020/12/12 12:38:04;;;;;;;11.40;9.37;;;7.80;99.90;;;;;;5066568;28;20224;-52
2020/12/12 12:40:30;;;;;;;11.87;9.60;;;7.70;99.90;;;;;;5067532;28;20482;-51
2020/12/12 12:42:59;;;;;;;13.13;10.33;;;7.60;1.00;;;;;;5070485;28;20199;-50
2020/12/12 12:45:25;;;;;;;13.77;10.27;;;7.50;99.90;;;;;;5069650;28;20179;-47
2020/12/12 12:47:51;;;;;;;12.95;9.25;;;7.60;1.00;;;;;;5064601;28;20205;-53
2020/12/12 12:50:17;;;;;;;11.30;9.17;;;7.50;1.00;;;;;;5069253;28;20244;-54
2020/12/12 12:52:43;;;;;;;14.07;10.50;;;7.50;1.00;;;;;;5069768;28;20207;-51
2020/12/12 12:55:09;;;;;;;13.03;9.63;;;7.40;99.90;;;;;;5068012;28;20205;-53
2020/12/12 12:57:36;;;;;;;13.52;10.48;;;7.30;1.00;;;;;;5067889;28;20184;-53
2020/12/12 13:00:03;;;;;;;13.23;10.25;;;7.30;99.90;;;;;;5060114;28;20182;-53
2020/12/12 13:02:28;;;;;;;16.35;11.45;;;7.30;99.90;;;;;;5069132;28;20691;-50
2020/12/12 13:04:54;;;;;;;13.70;9.77;;;7.30;1.00;;;;;;5070088;28;20207;-54